Time;durP1;ratioP1;P1;durP2;ratioP2;P2;SDS_P1;SDS_P2;PMS_P1;PMS_P2;Temp;Humidity;BMP_temperature;BMP_pressure;BME280_temperature;BME280_humidity;BME280_pressure;Samples;Min_cycle;Max_cycle;Signal;HPM_P1;HPM_P2
2023/12/20 00:00:52;;;;;;;151.70;103.22;;;;;;;2.45;72.70;94968.94;4181492;28;20494;-68
2023/12/20 00:02:54;;;;;;;120.85;85.70;;;;;;;2.54;72.43;94964.91;4170994;28;20045;-67
2023/12/20 00:04:56;;;;;;;104.50;71.10;;;;;;;2.50;71.88;94960.91;4166199;28;20116;-66
2023/12/20 00:06:58;;;;;;;122.00;84.13;;;;;;;2.51;71.58;94952.19;4172735;28;20060;-69
2023/12/20 00:09:00;;;;;;;112.70;77.82;;;;;;;2.68;72.27;94951.88;4160675;28;20049;-69
2023/12/20 00:11:02;;;;;;;123.38;81.65;;;;;;;2.86;71.71;94942.00;4172273;28;20056;-69
2023/12/20 00:13:04;;;;;;;134.95;91.57;;;;;;;2.97;71.91;94936.09;4178176;28;20051;-67
2023/12/20 00:15:06;;;;;;;135.07;93.18;;;;;;;3.05;70.75;94949.34;4168890;28;20042;-68
2023/12/20 00:17:08;;;;;;;136.23;95.72;;;;;;;3.02;70.26;94934.84;4176576;28;20045;-67
2023/12/20 00:19:10;;;;;;;113.70;76.85;;;;;;;2.99;70.39;94929.91;4168598;28;20042;-68
2023/12/20 00:21:12;;;;;;;136.43;94.00;;;;;;;3.06;70.81;94938.06;4173798;28;20052;-68
2023/12/20 00:23:14;;;;;;;133.93;87.50;;;;;;;3.14;70.53;94935.75;4168960;28;20484;-67
2023/12/20 00:25:16;;;;;;;128.73;87.97;;;;;;;3.15;70.69;94928.81;4174472;28;20080;-66
2023/12/20 00:27:18;;;;;;;129.05;88.00;;;;;;;3.08;70.70;94923.25;4163204;28;20072;-68
2023/12/20 00:29:19;;;;;;;126.25;85.30;;;;;;;3.16;70.18;94927.88;4164937;28;20507;-70
2023/12/20 00:31:21;;;;;;;123.13;86.05;;;;;;;3.06;69.36;94912.19;4163787;28;20146;-67
2023/12/20 00:33:23;;;;;;;130.75;94.03;;;;;;;2.99;69.33;94924.72;4174602;28;20049;-68
2023/12/20 00:35:26;;;;;;;130.63;90.50;;;;;;;2.86;70.76;94914.41;4167357;28;20049;-69
2023/12/20 00:37:27;;;;;;;126.43;86.72;;;;;;;2.81;71.23;94906.13;4179256;28;20068;-68
2023/12/20 00:39:29;;;;;;;122.05;86.60;;;;;;;2.76;71.06;94908.22;4176684;28;20504;-67
2023/12/20 00:41:31;;;;;;;117.95;80.75;;;;;;;2.70;71.51;94918.97;4172842;28;20114;-67
2023/12/20 00:43:33;;;;;;;116.70;80.13;;;;;;;2.72;71.96;94913.72;4171132;28;20057;-69
2023/12/20 00:45:35;;;;;;;111.28;77.07;;;;;;;2.80;71.88;94903.66;4175925;28;20430;-68
2023/12/20 00:47:37;;;;;;;96.22;70.32;;;;;;;2.89;71.38;94897.84;4172153;28;20055;-69
2023/12/20 00:49:38;;;;;;;104.07;72.82;;;;;;;3.03;71.11;94900.28;4170561;28;20046;-69
2023/12/20 00:51:40;;;;;;;105.85;72.63;;;;;;;3.00;70.07;94894.50;4173039;28;20101;-67
2023/12/20 00:53:43;;;;;;;109.10;71.57;;;;;;;3.00;69.10;94903.06;4177218;28;20466;-67
2023/12/20 00:55:45;;;;;;;103.32;72.68;;;;;;;2.94;69.54;94900.09;4171203;28;20111;-66
2023/12/20 00:57:47;;;;;;;100.47;70.10;;;;;;;2.89;69.84;94891.84;4172899;28;20060;-67
2023/12/20 00:59:49;;;;;;;101.18;70.25;;;;;;;2.91;70.06;94893.38;4165273;28;20122;-68
2023/12/20 01:01:51;;;;;;;96.28;68.32;;;;;;;2.87;70.46;94890.16;4163568;28;20100;-69
2023/12/20 01:04:00;;;;;;;100.30;69.88;;;;;;;2.96;70.74;94890.47;4158995;28;20116;-66
2023/12/20 01:06:05;;;;;;;111.63;78.20;;;;;;;2.98;70.62;94886.00;4182070;28;20479;-69
2023/12/20 01:08:13;;;;;;;101.95;74.18;;;;;;;3.03;70.27;94879.59;4175091;28;20037;-69
2023/12/20 01:10:17;;;;;;;111.05;74.80;;;;;;;2.93;70.24;94877.75;4184841;28;20052;-67
2023/12/20 01:12:20;;;;;;;105.17;73.20;;;;;;;2.73;70.53;94874.81;4172288;28;20095;-67
2023/12/20 01:14:29;;;;;;;103.10;71.45;;;;;;;2.81;71.27;94874.25;4165604;28;20290;-70
2023/12/20 01:16:31;;;;;;;109.05;74.88;;;;;;;2.82;71.26;94879.31;4182678;28;20044;-69
2023/12/20 01:18:32;;;;;;;106.82;71.68;;;;;;;2.77;70.43;94875.41;4167186;28;20143;-69
2023/12/20 01:20:35;;;;;;;97.10;68.88;;;;;;;2.62;69.80;94879.88;4169482;28;20131;-68
2023/12/20 01:22:36;;;;;;;102.50;69.03;;;;;;;2.59;70.27;94872.34;4166381;28;20057;-68
2023/12/20 01:24:38;;;;;;;100.05;68.53;;;;;;;2.48;70.79;94869.69;4178454;28;20052;-68
2023/12/20 01:26:40;;;;;;;107.30;71.63;;;;;;;2.46;71.15;94854.25;4164870;28;20143;-68
2023/12/20 01:28:42;;;;;;;99.80;70.53;;;;;;;2.29;71.76;94852.00;4173436;28;20092;-67
2023/12/20 01:30:44;;;;;;;98.57;68.07;;;;;;;2.30;72.26;94862.22;4169105;28;20085;-67
2023/12/20 01:32:46;;;;;;;100.03;66.63;;;;;;;2.29;72.12;94852.00;4163737;28;20046;-68
2023/12/20 01:34:48;;;;;;;100.53;72.00;;;;;;;2.46;72.04;94847.31;4165742;28;20500;-69
2023/12/20 01:36:51;;;;;;;105.47;74.22;;;;;;;2.55;71.39;94852.78;4165128;28;20068;-69
2023/12/20 01:38:53;;;;;;;111.13;79.72;;;;;;;2.57;71.36;94838.00;4177609;28;20099;-67
2023/12/20 01:40:55;;;;;;;108.13;77.25;;;;;;;2.69;71.34;94839.72;4162185;28;20128;-69
2023/12/20 01:43:08;;;;;;;108.80;77.38;;;;;;;2.60;70.70;94838.63;4164105;28;20132;-67
2023/12/20 01:45:10;;;;;;;114.73;78.43;;;;;;;2.53;71.11;94828.78;4167569;28;20067;-68
2023/12/20 01:47:12;;;;;;;113.25;78.35;;;;;;;2.59;71.43;94825.78;4177011;28;20182;-67
2023/12/20 01:49:14;;;;;;;109.60;78.78;;;;;;;2.69;70.82;94825.94;4176495;28;20049;-67
2023/12/20 01:51:17;;;;;;;107.75;70.97;;;;;;;2.64;70.21;94824.50;4179313;28;20056;-69
2023/12/20 01:53:20;;;;;;;93.18;68.15;;;;;;;2.54;70.42;94823.53;4174770;28;20060;-68
2023/12/20 01:55:22;;;;;;;82.93;60.90;;;;;;;2.47;69.77;94819.69;4165515;28;20063;-69
2023/12/20 01:57:24;;;;;;;74.07;51.95;;;;;;;2.35;70.16;94820.56;4177776;28;20128;-69
2023/12/20 01:59:26;;;;;;;77.88;54.65;;;;;;;2.36;70.47;94822.22;4174479;28;20098;-68
2023/12/20 02:01:28;;;;;;;84.55;59.35;;;;;;;2.30;70.80;94815.69;4168355;28;20476;-66
2023/12/20 02:03:30;;;;;;;79.30;56.05;;;;;;;2.27;70.61;94813.34;4176965;28;20079;-67
2023/12/20 02:05:33;;;;;;;86.75;62.33;;;;;;;2.22;71.27;94811.06;4174323;28;20059;-70
2023/12/20 02:07:35;;;;;;;82.50;58.42;;;;;;;2.20;71.25;94812.09;4168143;28;20049;-65
2023/12/20 02:09:38;;;;;;;87.88;58.63;;;;;;;2.17;71.22;94800.22;4166146;28;20045;-68
2023/12/20 02:11:40;;;;;;;90.53;62.37;;;;;;;2.24;71.12;94805.81;4178034;28;20103;-69
2023/12/20 02:13:42;;;;;;;94.50;64.70;;;;;;;2.19;70.62;94805.28;4177270;28;20111;-69
2023/12/20 02:15:44;;;;;;;92.10;63.72;;;;;;;2.18;70.75;94801.06;4172242;28;20061;-69
2023/12/20 02:17:47;;;;;;;89.40;62.83;;;;;;;2.20;70.94;94791.44;4170758;28;20045;-69
2023/12/20 02:19:49;;;;;;;;;;;;;;;2.19;70.62;94802.69;4173651;28;20476;-69
2023/12/20 02:22:06;;;;;;;86.72;58.00;;;;;;;2.13;70.73;94800.53;4168875;28;20851;-68
2023/12/20 02:24:07;;;;;;;83.57;57.72;;;;;;;2.17;71.38;94799.38;4173405;28;20041;-69
2023/12/20 02:26:10;;;;;;;94.93;67.18;;;;;;;2.25;70.31;94794.50;4177188;28;20128;-68
2023/12/20 02:28:12;;;;;;;95.78;67.20;;;;;;;2.33;70.62;94787.06;4176815;28;20128;-65
2023/12/20 02:30:14;;;;;;;110.22;77.03;;;;;;;2.38;70.52;94787.56;4175675;28;20051;-69
2023/12/20 02:32:17;;;;;;;104.55;69.57;;;;;;;2.24;70.47;94778.19;4177552;28;20423;-69
2023/12/20 02:34:19;;;;;;;97.32;67.72;;;;;;;2.14;70.33;94784.91;4175004;28;20086;-68
2023/12/20 02:36:21;;;;;;;89.53;61.65;;;;;;;1.94;71.48;94769.97;4172489;28;20111;-69
2023/12/20 02:38:23;;;;;;;81.97;53.40;;;;;;;1.85;71.38;94779.19;4184395;28;20431;-68
2023/12/20 02:40:25;;;;;;;68.03;46.78;;;;;;;1.65;71.58;94770.16;4178443;28;20053;-67
2023/12/20 02:42:27;;;;;;;55.35;37.33;;;;;;;1.57;71.88;94775.03;4183882;28;20090;-69
2023/12/20 02:44:28;;;;;;;50.90;34.35;;;;;;;1.46;72.95;94770.56;4178231;28;20091;-69
2023/12/20 02:46:30;;;;;;;54.28;34.17;;;;;;;1.49;72.92;94769.56;4181841;28;20140;-67
2023/12/20 02:48:32;;;;;;;44.35;29.73;;;;;;;1.38;72.74;94767.69;4176171;28;20053;-69
2023/12/20 02:50:34;;;;;;;42.03;28.25;;;;;;;1.36;72.11;94772.13;4180651;28;20118;-69
2023/12/20 02:52:36;;;;;;;40.17;26.27;;;;;;;1.34;71.94;94766.25;4166090;28;20153;-68
2023/12/20 02:54:38;;;;;;;40.50;26.70;;;;;;;1.27;71.15;94764.97;4172339;28;20064;-69
2023/12/20 02:56:39;;;;;;;43.92;27.92;;;;;;;1.26;71.90;94773.66;4176203;28;20433;-68
2023/12/20 02:58:41;;;;;;;39.90;26.38;;;;;;;1.35;71.92;94771.28;4174875;28;20475;-70
2023/12/20 03:00:43;;;;;;;42.72;27.48;;;;;;;1.39;71.87;94774.50;4178133;28;20068;-68
2023/12/20 03:02:45;;;;;;;40.63;27.02;;;;;;;1.31;71.10;94763.84;4176356;28;20049;-67
2023/12/20 03:04:47;;;;;;;41.75;26.17;;;;;;;1.31;71.13;94774.16;4174465;28;20053;-68
2023/12/20 03:06:49;;;;;;;41.33;28.65;;;;;;;1.47;71.27;94763.69;4177527;28;20071;-68
2023/12/20 03:08:51;;;;;;;41.35;27.50;;;;;;;1.68;71.47;94754.50;4176744;28;20037;-67
2023/12/20 03:10:53;;;;;;;42.58;30.63;;;;;;;1.79;71.31;94771.84;4171962;28;20045;-68
2023/12/20 03:12:55;;;;;;;45.05;29.30;;;;;;;1.85;71.23;94761.09;4174106;28;20395;-66
2023/12/20 03:14:57;;;;;;;43.03;30.00;;;;;;;1.94;71.11;94765.63;4177233;28;20143;-68
2023/12/20 03:16:59;;;;;;;44.28;30.77;;;;;;;2.08;70.82;94756.09;4177993;28;20052;-68
2023/12/20 03:19:01;;;;;;;48.63;33.35;;;;;;;1.99;70.05;94747.22;4178730;28;20548;-68
2023/12/20 03:21:04;;;;;;;54.33;33.50;;;;;;;2.14;70.59;94759.06;4175295;28;20103;-68
2023/12/20 03:23:06;;;;;;;47.38;35.05;;;;;;;2.25;69.81;94753.16;4181033;28;20128;-69
2023/12/20 03:25:08;;;;;;;50.95;34.50;;;;;;;2.28;69.78;94750.38;4164188;28;20132;-68
2023/12/20 03:27:10;;;;;;;55.50;37.83;;;;;;;2.38;69.35;94753.94;4176135;28;20073;-69
2023/12/20 03:29:12;;;;;;;56.67;37.75;;;;;;;2.36;68.47;94750.63;4174003;28;20265;-69
2023/12/20 03:31:14;;;;;;;54.30;39.92;;;;;;;2.24;68.14;94743.75;4179363;28;20041;-68
2023/12/20 03:33:16;;;;;;;58.78;39.63;;;;;;;2.07;69.22;94734.59;4175473;28;20101;-67
2023/12/20 03:35:18;;;;;;;60.85;42.35;;;;;;;1.97;69.51;94731.81;4179990;28;20075;-68
2023/12/20 03:37:19;;;;;;;59.25;43.33;;;;;;;1.92;69.75;94740.84;4179513;28;20056;-66
2023/12/20 03:39:21;;;;;;;65.80;46.15;;;;;;;1.76;70.55;94747.03;4178696;28;20075;-69
2023/12/20 03:41:23;;;;;;;75.30;54.08;;;;;;;1.68;70.72;94749.31;4179469;28;20065;-68
2023/12/20 03:43:25;;;;;;;89.28;59.05;;;;;;;1.63;71.49;94739.31;4180596;28;20053;-67
2023/12/20 03:45:27;;;;;;;111.82;74.53;;;;;;;1.76;71.59;94747.03;4172908;28;20136;-68
2023/12/20 03:47:28;;;;;;;120.50;80.85;;;;;;;1.81;71.53;94739.00;4173239;28;20056;-67
2023/12/20 03:49:30;;;;;;;119.88;82.68;;;;;;;1.81;71.26;94744.97;4176521;28;20103;-67
2023/12/20 03:51:33;;;;;;;90.22;65.00;;;;;;;1.80;70.99;94740.72;4180101;28;20056;-67
2023/12/20 03:53:34;;;;;;;96.05;66.00;;;;;;;1.74;70.90;94737.72;4177227;28;20052;-68
2023/12/20 03:55:36;;;;;;;95.38;65.20;;;;;;;1.61;71.26;94745.47;4165263;28;20164;-67
2023/12/20 03:57:38;;;;;;;92.47;64.30;;;;;;;1.64;71.91;94737.53;4168444;28;20061;-67
2023/12/20 03:59:40;;;;;;;108.20;74.50;;;;;;;1.66;72.18;94733.09;4179058;28;20378;-69
2023/12/20 04:01:45;;;;;;;95.68;65.90;;;;;;;1.72;71.08;94735.28;4178734;28;20049;-69
2023/12/20 04:03:47;;;;;;;94.38;64.65;;;;;;;1.78;71.19;94734.00;4176822;28;20049;-69
2023/12/20 04:05:49;;;;;;;98.13;69.07;;;;;;;1.71;71.25;94725.84;4179559;28;20057;-67
2023/12/20 04:07:51;;;;;;;103.93;70.68;;;;;;;1.70;70.69;94729.38;4177494;28;20492;-68
2023/12/20 04:09:53;;;;;;;92.97;66.32;;;;;;;1.56;71.02;94729.50;4177147;28;20102;-68
2023/12/20 04:11:54;;;;;;;88.53;61.65;;;;;;;1.49;71.17;94717.94;4180324;28;20045;-69
2023/12/20 04:13:56;;;;;;;92.32;62.90;;;;;;;1.51;71.33;94719.47;4179632;28;20618;-71
2023/12/20 04:15:58;;;;;;;102.40;70.45;;;;;;;1.52;70.98;94713.38;4166400;28;20053;-68
2023/12/20 04:18:00;;;;;;;95.72;68.38;;;;;;;1.54;71.44;94714.09;4178406;28;20386;-68
2023/12/20 04:20:02;;;;;;;94.88;66.03;;;;;;;1.49;70.95;94710.19;4179015;28;20041;-68
2023/12/20 04:22:04;;;;;;;111.63;77.13;;;;;;;1.53;71.10;94704.72;4169967;28;20068;-67
2023/12/20 04:24:06;;;;;;;131.32;86.38;;;;;;;1.53;71.41;94707.28;4166269;28;20045;-67
2023/12/20 04:26:09;;;;;;;119.75;80.85;;;;;;;1.56;71.02;94703.66;4170862;28;20073;-68
2023/12/20 04:28:11;;;;;;;123.45;81.93;;;;;;;1.59;71.23;94706.03;4178969;28;20053;-69
2023/12/20 04:30:13;;;;;;;118.47;77.32;;;;;;;1.66;71.22;94701.25;4176912;28;20052;-67
2023/12/20 04:32:15;;;;;;;129.27;87.15;;;;;;;1.68;69.99;94695.09;4178753;28;20115;-68
2023/12/20 04:34:17;;;;;;;140.85;92.07;;;;;;;1.70;70.67;94700.97;4178872;28;20061;-68
2023/12/20 04:36:19;;;;;;;146.50;96.55;;;;;;;1.74;70.59;94701.56;4176034;28;20095;-68
2023/12/20 04:38:21;;;;;;;137.80;91.30;;;;;;;1.71;69.97;94691.47;4166292;28;20049;-68
2023/12/20 04:40:23;;;;;;;146.70;95.03;;;;;;;1.65;70.25;94692.69;4173994;28;20148;-71
2023/12/20 04:42:25;;;;;;;136.00;89.65;;;;;;;1.54;69.52;94697.78;4179626;28;20053;-68
2023/12/20 04:44:27;;;;;;;144.93;96.03;;;;;;;1.48;70.36;94699.00;4178181;28;20488;-70
2023/12/20 04:46:29;;;;;;;145.30;98.53;;;;;;;1.45;70.60;94695.84;4183044;28;20225;-68
2023/12/20 04:48:31;;;;;;;145.20;97.88;;;;;;;1.30;70.64;94687.38;4176049;28;20045;-69
2023/12/20 04:50:33;;;;;;;147.93;97.30;;;;;;;1.29;71.52;94690.84;4177004;28;20053;-70
2023/12/20 04:52:35;;;;;;;145.25;95.22;;;;;;;1.32;71.44;94686.31;4173247;28;20480;-68
2023/12/20 04:54:37;;;;;;;145.50;93.25;;;;;;;1.20;71.87;94689.72;4175174;28;20149;-69
2023/12/20 04:56:38;;;;;;;137.95;93.60;;;;;;;1.38;71.89;94690.25;4179044;28;20110;-69
2023/12/20 04:58:42;;;;;;;136.70;91.82;;;;;;;1.58;71.97;94687.13;4177679;28;20127;-68
2023/12/20 05:00:44;;;;;;;141.93;91.65;;;;;;;1.72;71.25;94687.94;4174592;28;20484;-69
2023/12/20 05:02:45;;;;;;;128.63;84.85;;;;;;;1.46;70.13;94693.13;4193341;28;20051;-68
2023/12/20 05:04:47;;;;;;;122.38;82.10;;;;;;;0.94;71.56;94681.13;4175410;28;20067;-69
2023/12/20 05:06:50;;;;;;;120.50;78.38;;;;;;;0.91;73.15;94684.75;4173243;28;20076;-69
2023/12/20 05:08:52;;;;;;;103.35;66.40;;;;;;;0.44;72.74;94680.09;4168265;28;20122;-69
2023/12/20 05:10:57;;;;;;;91.68;59.92;;;;;;;0.20;73.48;94683.31;4170809;28;20103;-69
2023/12/20 05:12:58;;;;;;;94.63;61.50;;;;;;;0.17;74.11;94675.75;4170034;28;20057;-70
2023/12/20 05:15:00;;;;;;;93.60;59.55;;;;;;;0.25;74.22;94680.44;4175885;28;20114;-68
2023/12/20 05:17:03;;;;;;;97.18;59.97;;;;;;;0.19;74.25;94677.34;4190874;28;20052;-70
2023/12/20 05:19:06;;;;;;;92.80;59.72;;;;;;;0.20;74.23;94678.16;4167975;28;20136;-69
2023/12/20 05:21:08;;;;;;;92.85;59.53;;;;;;;0.07;74.28;94679.88;4169415;28;20064;-70
2023/12/20 05:23:11;;;;;;;99.55;60.13;;;;;;;0.06;74.85;94678.19;4171535;28;20049;-69
2023/12/20 05:25:13;;;;;;;90.45;58.55;;;;;;;0.11;74.90;94676.19;4168915;28;20457;-70
2023/12/20 05:27:15;;;;;;;94.93;60.88;;;;;;;0.11;74.68;94674.41;4179206;28;20145;-70
2023/12/20 05:29:17;;;;;;;106.00;61.45;;;;;;;0.06;74.75;94671.28;4178757;28;20068;-70
2023/12/20 05:31:19;;;;;;;99.03;61.35;;;;;;;-0.08;75.20;94666.19;4175985;28;20437;-70
2023/12/20 05:33:20;;;;;;;100.55;61.83;;;;;;;-0.07;75.10;94667.84;4177349;28;20106;-68
2023/12/20 05:35:23;;;;;;;100.82;60.45;;;;;;;0.08;75.49;94661.72;4168178;28;20091;-71
2023/12/20 05:37:25;;;;;;;109.35;66.55;;;;;;;-0.09;75.38;94657.63;4176791;28;20124;-69
2023/12/20 05:39:27;;;;;;;110.03;64.72;;;;;;;-0.19;75.72;94666.84;4158457;28;20081;-69
2023/12/20 05:41:30;;;;;;;161.18;69.32;;;;;;;-0.16;76.59;94664.09;4177847;28;21231;-70
2023/12/20 05:43:32;;;;;;;208.85;71.97;;;;;;;-0.35;76.35;94658.41;4178743;28;20091;-70
2023/12/20 05:45:34;;;;;;;191.48;72.75;;;;;;;-0.33;77.06;94659.16;4185729;28;20052;-69
2023/12/20 05:47:36;;;;;;;268.10;78.28;;;;;;;-0.45;77.24;94656.41;4176612;28;20210;-72
2023/12/20 05:49:38;;;;;;;250.60;75.85;;;;;;;-0.68;77.37;94652.66;4177306;28;20352;-70
2023/12/20 05:51:40;;;;;;;193.98;72.57;;;;;;;-0.52;78.65;94649.97;4178431;28;20515;-69
2023/12/20 05:53:43;;;;;;;138.82;69.50;;;;;;;-0.34;78.40;94657.50;4178285;28;20057;-70
2023/12/20 05:55:45;;;;;;;147.53;71.37;;;;;;;-0.19;78.05;94648.84;4171512;28;20056;-68
2023/12/20 05:57:48;;;;;;;189.38;73.97;;;;;;;-0.16;77.46;94647.81;4177440;28;20562;-71
2023/12/20 05:59:50;;;;;;;160.43;75.78;;;;;;;-0.22;76.91;94654.16;4176879;28;20072;-69
2023/12/20 06:01:52;;;;;;;248.20;79.28;;;;;;;-0.21;77.06;94654.06;4173031;28;20399;-69
2023/12/20 06:03:54;;;;;;;165.07;74.38;;;;;;;-0.24;77.03;94638.84;4176577;28;20152;-69
2023/12/20 06:05:56;;;;;;;173.32;75.22;;;;;;;-0.15;77.04;94645.16;4177933;28;20052;-68
2023/12/20 06:08:14;;;;;;;138.27;72.93;;;;;;;-0.23;77.46;94652.53;4167589;28;20045;-68
2023/12/20 06:10:16;;;;;;;262.75;80.32;;;;;;;-0.23;77.29;94640.47;4165731;28;20045;-69
2023/12/20 06:12:18;;;;;;;159.93;71.95;;;;;;;-0.37;77.30;94642.25;4178572;28;20045;-69
2023/12/20 06:14:20;;;;;;;164.80;73.70;;;;;;;-0.28;77.26;94642.50;4178807;28;20060;-68
2023/12/20 06:16:22;;;;;;;158.90;78.10;;;;;;;-0.21;77.87;94640.38;4177025;28;20049;-70
2023/12/20 06:18:24;;;;;;;137.85;76.28;;;;;;;-0.07;77.90;94642.91;4174845;28;20064;-70
2023/12/20 06:20:26;;;;;;;147.55;75.65;;;;;;;-0.16;77.41;94650.38;4164134;28;20115;-70
2023/12/20 06:22:28;;;;;;;154.55;78.70;;;;;;;-0.11;77.27;94651.75;4163490;28;20045;-69
2023/12/20 06:24:30;;;;;;;136.25;74.20;;;;;;;-0.10;77.00;94652.59;4166163;28;20051;-69
2023/12/20 06:26:32;;;;;;;168.80;76.53;;;;;;;-0.06;77.14;94656.63;4176439;28;20055;-70
2023/12/20 06:28:33;;;;;;;197.82;75.47;;;;;;;-0.05;76.20;94651.34;4173506;28;20111;-68
2023/12/20 06:30:36;;;;;;;137.63;70.78;;;;;;;0.16;77.18;94643.22;4170201;28;20048;-71
2023/12/20 06:32:39;;;;;;;220.70;78.80;;;;;;;-0.03;76.12;94648.69;4166873;28;20129;-71
2023/12/20 06:34:41;;;;;;;153.48;72.80;;;;;;;-0.04;76.54;94647.88;4165768;28;20147;-70
2023/12/20 06:36:43;;;;;;;184.95;79.40;;;;;;;-0.22;77.16;94649.00;4164733;28;20122;-68
2023/12/20 06:38:46;;;;;;;220.68;76.50;;;;;;;-0.21;77.71;94640.38;4165097;28;20137;-69
2023/12/20 06:40:48;;;;;;;174.30;75.13;;;;;;;-0.18;77.26;94645.31;4161160;28;20443;-68
2023/12/20 06:42:50;;;;;;;179.43;74.93;;;;;;;-0.26;77.77;94644.97;4171236;28;20057;-69
2023/12/20 06:45:06;;;;;;;225.30;80.05;;;;;;;-0.08;77.75;94645.59;4167599;28;20102;-70
2023/12/20 06:47:08;;;;;;;148.02;71.47;;;;;;;0.05;77.15;94630.19;4176610;28;20045;-70
2023/12/20 06:49:10;;;;;;;131.20;69.70;;;;;;;0.15;76.48;94624.38;4173365;28;20049;-70
2023/12/20 06:51:15;;;;;;;132.80;71.38;;;;;;;0.30;75.72;94638.00;4172216;28;20064;-70
2023/12/20 06:53:17;;;;;;;214.50;75.13;;;;;;;0.31;74.65;94626.78;4192098;28;20053;-69
2023/12/20 06:55:19;;;;;;;133.52;71.53;;;;;;;0.55;75.25;94623.53;4167786;28;20049;-68
2023/12/20 06:57:21;;;;;;;127.47;68.63;;;;;;;0.70;74.98;94622.50;4176207;28;20049;-69
2023/12/20 06:59:22;;;;;;;124.50;69.85;;;;;;;0.88;74.95;94615.28;4178640;28;20056;-69
2023/12/20 07:01:24;;;;;;;130.27;71.43;;;;;;;1.12;75.18;94618.00;4167045;28;20068;-70
2023/12/20 07:03:26;;;;;;;250.82;84.97;;;;;;;1.20;74.04;94610.53;4166655;28;20053;-72
2023/12/20 07:05:28;;;;;;;126.75;69.53;;;;;;;1.22;73.08;94613.84;4165535;28;20136;-71
2023/12/20 07:07:30;;;;;;;121.88;69.18;;;;;;;1.27;72.59;94599.81;4178347;28;20040;-69
2023/12/20 07:09:32;;;;;;;125.07;70.38;;;;;;;1.45;72.07;94608.88;4177522;28;20053;-70
2023/12/20 07:11:34;;;;;;;134.23;71.57;;;;;;;1.45;72.13;94614.03;4166198;28;20315;-69
2023/12/20 07:13:36;;;;;;;132.75;71.55;;;;;;;1.50;71.94;94609.38;4181268;28;20114;-70
2023/12/20 07:15:38;;;;;;;132.50;70.72;;;;;;;1.54;71.68;94603.06;4170372;28;20046;-70
2023/12/20 07:17:40;;;;;;;123.78;70.80;;;;;;;1.67;71.17;94609.97;4164802;28;20083;-70
2023/12/20 07:19:42;;;;;;;127.28;73.00;;;;;;;1.56;71.32;94601.22;4165802;28;20176;-71
2023/12/20 07:21:44;;;;;;;143.48;78.45;;;;;;;1.30;72.12;94608.19;4166125;28;20045;-70
2023/12/20 07:23:46;;;;;;;165.93;82.68;;;;;;;0.96;73.08;94600.13;4166167;28;20056;-70
2023/12/20 07:25:48;;;;;;;156.55;79.00;;;;;;;0.88;73.91;94601.59;4168628;28;20049;-70
2023/12/20 07:27:50;;;;;;;160.10;82.57;;;;;;;0.96;74.34;94601.91;4180973;28;20131;-71
2023/12/20 07:29:52;;;;;;;160.93;82.25;;;;;;;1.05;74.78;94590.13;4175504;28;20049;-71
2023/12/20 07:31:54;;;;;;;178.00;85.82;;;;;;;0.92;75.23;94582.41;4178646;28;20048;-71
2023/12/20 07:33:56;;;;;;;177.80;89.10;;;;;;;0.74;75.03;94590.44;4179359;28;20107;-70
2023/12/20 07:35:59;;;;;;;163.48;85.03;;;;;;;0.72;75.35;94594.06;4179513;28;20104;-70
2023/12/20 07:38:02;;;;;;;167.38;86.45;;;;;;;0.55;76.71;94596.00;4178136;28;20155;-70
2023/12/20 07:40:04;;;;;;;163.80;84.53;;;;;;;0.44;77.00;94593.31;4177576;28;20125;-70
2023/12/20 07:42:07;;;;;;;171.52;84.15;;;;;;;0.52;76.54;94595.38;4180908;28;20037;-70
2023/12/20 07:44:09;;;;;;;163.48;83.80;;;;;;;0.67;77.38;94591.78;4180564;28;20053;-70
2023/12/20 07:46:11;;;;;;;161.80;84.78;;;;;;;0.75;76.19;94593.84;4189515;28;20045;-69
2023/12/20 07:48:13;;;;;;;186.32;92.80;;;;;;;0.70;75.91;94591.56;4165357;28;20080;-71
2023/12/20 07:50:16;;;;;;;197.65;92.68;;;;;;;0.72;76.00;94592.31;4172298;28;20057;-71
2023/12/20 07:52:18;;;;;;;177.60;89.10;;;;;;;0.76;76.56;94595.50;4180529;28;20057;-68
2023/12/20 07:54:20;;;;;;;176.65;89.13;;;;;;;0.82;75.77;94589.94;4179357;28;20104;-70
2023/12/20 07:56:22;;;;;;;184.48;91.43;;;;;;;0.67;75.88;94586.63;4175979;28;20065;-70
2023/12/20 07:58:24;;;;;;;182.95;89.18;;;;;;;0.74;76.22;94580.13;4172502;28;20048;-70
2023/12/20 08:00:45;;;;;;;186.98;91.22;;;;;;;0.86;76.23;94587.97;4167359;28;20049;-68
2023/12/20 08:02:47;;;;;;;180.52;90.22;;;;;;;0.66;75.31;94577.22;4169049;28;20127;-68
2023/12/20 08:04:49;;;;;;;194.40;93.35;;;;;;;0.69;75.75;94583.94;4169401;28;20080;-72
2023/12/20 08:06:51;;;;;;;180.32;89.95;;;;;;;0.61;76.39;94589.63;4179442;28;20111;-69
2023/12/20 08:08:53;;;;;;;216.13;95.20;;;;;;;0.72;75.54;94576.84;4171415;28;20044;-71
2023/12/20 08:11:03;;;;;;;198.57;92.32;;;;;;;0.73;75.54;94586.22;4173394;28;20072;-69
2023/12/20 08:13:04;;;;;;;199.02;93.95;;;;;;;0.79;74.29;94584.97;4176720;28;20077;-69
2023/12/20 08:15:07;;;;;;;183.27;90.70;;;;;;;0.58;75.75;94574.34;4179241;28;20059;-69
2023/12/20 08:17:09;;;;;;;198.00;94.68;;;;;;;0.76;75.79;94573.13;4174964;28;20080;-70
2023/12/20 08:19:10;;;;;;;191.45;94.10;;;;;;;0.46;76.00;94573.41;4176490;28;20206;-71
2023/12/20 08:21:12;;;;;;;177.82;91.13;;;;;;;0.63;76.36;94564.56;4164907;28;20045;-71
2023/12/20 08:23:15;;;;;;;185.60;92.40;;;;;;;0.89;76.10;94567.16;4180684;28;20040;-70
2023/12/20 08:25:17;;;;;;;182.10;91.38;;;;;;;1.23;75.67;94563.91;4175774;28;20049;-71
2023/12/20 08:27:25;;;;;;;170.85;91.72;;;;;;;1.33;74.37;94561.50;4170135;28;20053;-72
2023/12/20 08:29:27;;;;;;;178.18;92.13;;;;;;;1.50;73.11;94557.75;4171997;28;20383;-70
2023/12/20 08:31:29;;;;;;;170.48;91.65;;;;;;;1.61;73.09;94560.41;4169966;28;20076;-72
2023/12/20 08:33:31;;;;;;;182.02;93.07;;;;;;;1.73;72.36;94548.38;4180103;28;20053;-70
2023/12/20 08:35:33;;;;;;;184.75;91.72;;;;;;;1.68;72.58;94547.03;4173922;28;20426;-70
2023/12/20 08:37:35;;;;;;;166.77;89.82;;;;;;;1.69;73.43;94549.53;4188705;28;20072;-70
2023/12/20 08:39:37;;;;;;;175.15;91.40;;;;;;;1.77;72.84;94541.25;4177058;28;20534;-70
2023/12/20 08:41:40;;;;;;;167.23;89.75;;;;;;;1.81;72.52;94540.09;4174114;28;20689;-70
2023/12/20 08:43:44;;;;;;;172.70;92.47;;;;;;;1.86;72.29;94540.59;4164279;28;20049;-70
2023/12/20 08:45:46;;;;;;;188.05;94.20;;;;;;;2.02;72.01;94538.56;4184707;28;20074;-70
2023/12/20 08:47:48;;;;;;;191.93;100.45;;;;;;;2.07;71.50;94532.22;4167964;28;20451;-71
2023/12/20 08:49:51;;;;;;;181.38;97.35;;;;;;;1.96;72.04;94536.41;4164841;28;20053;-71
2023/12/20 08:51:53;;;;;;;186.98;95.43;;;;;;;2.01;72.09;94530.91;4165558;28;20121;-71
2023/12/20 08:53:55;;;;;;;186.77;97.95;;;;;;;1.99;72.29;94531.00;4168155;28;20077;-70
2023/12/20 08:56:01;;;;;;;177.07;97.82;;;;;;;1.96;72.10;94530.41;4164833;28;20456;-67
2023/12/20 08:58:03;;;;;;;182.60;96.72;;;;;;;1.90;72.19;94530.88;4170701;28;20233;-72
2023/12/20 09:00:07;;;;;;;187.35;97.20;;;;;;;1.96;72.52;94525.25;4171729;28;20509;-69
2023/12/20 09:02:09;;;;;;;179.73;96.07;;;;;;;1.96;71.29;94518.31;4167742;28;20053;-70
2023/12/20 09:04:11;;;;;;;182.40;96.47;;;;;;;2.14;71.15;94510.16;4162021;28;20496;-68
2023/12/20 09:06:13;;;;;;;175.40;95.45;;;;;;;2.30;71.20;94500.31;4164599;28;20168;-70
2023/12/20 09:08:15;;;;;;;175.60;98.30;;;;;;;2.35;70.79;94492.25;4173342;28;20053;-70
2023/12/20 09:10:21;;;;;;;170.25;97.78;;;;;;;2.44;69.98;94479.44;4163481;28;20073;-71
2023/12/20 09:12:24;;;;;;;166.77;96.22;;;;;;;2.59;70.04;94479.22;4166739;28;20147;-69
2023/12/20 09:14:26;;;;;;;170.18;95.70;;;;;;;2.67;70.06;94485.47;4174459;28;20044;-72
2023/12/20 09:16:27;;;;;;;176.48;96.68;;;;;;;2.78;69.68;94466.53;4171941;28;20041;-71
2023/12/20 09:18:29;;;;;;;177.18;99.03;;;;;;;2.73;69.00;94455.75;4166408;28;20053;-73
2023/12/20 09:20:31;;;;;;;170.18;97.88;;;;;;;2.52;69.09;94455.59;4169019;28;20042;-71
2023/12/20 09:22:34;;;;;;;176.00;97.13;;;;;;;2.37;69.98;94441.25;4170090;28;20041;-70
2023/12/20 09:24:38;;;;;;;189.52;103.32;;;;;;;2.27;71.79;94443.69;4169745;28;20100;-70